Gambler — LELC — position and weather

sailwx.info

Track history (hours):
 
Tides and Currents Weather Stations Pressure Air Temp Water Temp Dewpoint Dewpoint Depression Visibility Wind Speed Wind Dir Waves Ship Positions

Gambler

Last reported at 2015-May-27 19:04 UTC. Time now 2015-May-30 22:41 UTC.
Position N 59°09' E 004°31'.

Length 70 m; draft 6 m.

Type: Fishing. MMSI: 258412000.

Date/timePositionNaut miles runAvg speedWind from/ knotsBaromVisibWave heightAir tempDewpointWater temp
2015-May-27 19:04N 59°09' E 004°31'810.0
2015-May-27 18:18N 59°03' E 004°41'7 9.9
2015-May-27 17:33N 58°58' E 004°51'10 9.8
2015-May-27 16:34N 58°51' E 005°04'28 9.2
2015-May-27 13:31N 58°30' E 005°40'9 9.4
2015-May-27 12:33N 58°24' E 005°54'4 3.6
2015-May-27 11:33N 58°27' E 005°59'0 0.0
2015-May-27 10:33N 58°27' E 005°59'0 0.0
2015-May-27 09:33N 58°27' E 005°59'0 0.0
2015-May-27 08:33N 58°27' E 005°59'0 0.0
2015-May-27 07:33N 58°27' E 005°59'0 0.0
2015-May-27 06:33N 58°27' E 005°59'5 4.5
2015-May-27 05:33N 58°25' E 005°51'1010.0
2015-May-27 04:32N 58°30' E 005°35'  
Track history (hours):
 
Tides and Currents Weather Stations Pressure Air Temp Water Temp Dewpoint Dewpoint Depression Visibility Wind Speed Wind Dir Waves Ship Positions

Gambler

Last reported at 2015-May-27 19:04 UTC. Time now 2015-May-30 22:41 UTC.
Position N 59°09' E 004°31'.

Length 70 m; draft 6 m.

Type: Fishing. MMSI: 258412000.

Date/timePositionNaut miles runAvg speedWind from/ knotsBaromVisibWave heightAir tempDewpointWater temp
2015-May-27 19:04N 59°09' E 004°31'810.0
2015-May-27 18:18N 59°03' E 004°41'7 9.9
2015-May-27 17:33N 58°58' E 004°51'10 9.8
2015-May-27 16:34N 58°51' E 005°04'28 9.2
2015-May-27 13:31N 58°30' E 005°40'9 9.4
2015-May-27 12:33N 58°24' E 005°54'4 3.6
2015-May-27 11:33N 58°27' E 005°59'0 0.0
2015-May-27 10:33N 58°27' E 005°59'0 0.0
2015-May-27 09:33N 58°27' E 005°59'0 0.0
2015-May-27 08:33N 58°27' E 005°59'0 0.0
2015-May-27 07:33N 58°27' E 005°59'0 0.0
2015-May-27 06:33N 58°27' E 005°59'5 4.5
2015-May-27 05:33N 58°25' E 005°51'1010.0
2015-May-27 04:32N 58°30' E 005°35'  

Dump ship's entire track history